createdAt,value
2023-12-02T00:01:52.602Z,85078.47
2023-12-02T00:04:20.674Z,85070.28
2023-12-02T00:06:48.076Z,85061.53
2023-12-02T00:09:15.870Z,85060.63
2023-12-02T00:11:43.525Z,85053.16
2023-12-02T00:14:10.862Z,85066.69
2023-12-02T00:16:38.211Z,85069.16
2023-12-02T00:19:05.652Z,85066.13
2023-12-02T00:21:33.272Z,85071.34
2023-12-02T00:24:00.712Z,85063.81
2023-12-02T00:26:28.078Z,85062.09
2023-12-02T00:28:55.458Z,85060.22
2023-12-02T00:31:22.860Z,85046.94
2023-12-02T00:33:50.564Z,85049.41
2023-12-02T00:36:18.030Z,85045.72
2023-12-02T00:38:45.728Z,85053.50
2023-12-02T00:41:13.129Z,85048.34
2023-12-02T00:43:40.517Z,85045.28
2023-12-02T00:46:08.476Z,85051.19
2023-12-02T00:48:37.146Z,85059.38
2023-12-02T00:51:04.961Z,85050.78
2023-12-02T00:53:32.382Z,85056.69
2023-12-02T00:55:59.708Z,85055.28
2023-12-02T00:58:35.493Z,85051.59
2023-12-02T01:01:06.925Z,85049.47
2023-12-02T01:03:34.476Z,85040.47
2023-12-02T01:06:02.039Z,85039.25
2023-12-02T01:08:29.483Z,85050.53
2023-12-02T01:10:57.031Z,85052.34
2023-12-02T01:13:24.381Z,85035.44
2023-12-02T01:15:51.730Z,85037.75
2023-12-02T01:18:19.291Z,85043.75
2023-12-02T01:20:47.221Z,85040.38
2023-12-02T01:23:14.898Z,85030.13
2023-12-02T01:25:42.278Z,85021.09
2023-12-02T01:28:09.726Z,85021.53
2023-12-02T01:30:37.160Z,85012.16
2023-12-02T01:33:04.597Z,85016.78
2023-12-02T01:35:32.080Z,85024.22
2023-12-02T01:38:13.260Z,85013.31
2023-12-02T01:40:40.713Z,85015.22
2023-12-02T01:43:08.056Z,85017.59
2023-12-02T01:45:35.580Z,85005.53
2023-12-02T01:48:03.647Z,85008.25
2023-12-02T01:50:31.173Z,85003.00
2023-12-02T01:52:58.656Z,85004.06
2023-12-02T01:55:26.283Z,84993.97
2023-12-02T01:57:53.784Z,84993.16
2023-12-02T02:00:21.318Z,84994.66
2023-12-02T02:02:49.179Z,84998.72
2023-12-02T02:05:16.925Z,84988.16
2023-12-02T02:07:44.430Z,84993.09
2023-12-02T02:10:12.092Z,84996.44
2023-12-02T02:12:39.599Z,84999.03
2023-12-02T02:15:07.877Z,84992.66
2023-12-02T02:17:35.532Z,84981.44
2023-12-02T02:20:03.016Z,84987.91
2023-12-02T02:22:30.460Z,84990.53
2023-12-02T02:24:58.029Z,84990.97
2023-12-02T02:27:25.395Z,84984.56
2023-12-02T02:29:52.761Z,84977.91
2023-12-02T02:32:20.099Z,84980.53
2023-12-02T02:34:48.326Z,84973.00
2023-12-02T02:37:15.920Z,84974.16
2023-12-02T02:39:43.310Z,84974.91
2023-12-02T02:42:10.768Z,84976.38
2023-12-02T02:44:38.706Z,84967.03
2023-12-02T02:47:06.299Z,84972.19
2023-12-02T02:49:33.748Z,84974.81
2023-12-02T02:52:01.113Z,84970.38
2023-12-02T02:54:28.671Z,84981.59
2023-12-02T02:56:56.127Z,84977.41
2023-12-02T02:59:23.665Z,84980.03
2023-12-02T03:01:51.055Z,84968.09
2023-12-02T03:04:18.519Z,84959.56
2023-12-02T03:06:46.125Z,84962.94
2023-12-02T03:09:14.166Z,84970.91
2023-12-02T03:11:41.800Z,84962.59
2023-12-02T03:14:09.315Z,84964.16
2023-12-02T03:16:36.842Z,84962.59
2023-12-02T03:19:04.871Z,84968.91
2023-12-02T03:21:32.659Z,84959.56
2023-12-02T03:24:00.330Z,84952.53
2023-12-02T03:26:27.820Z,84959.56
2023-12-02T03:28:55.296Z,84953.25
2023-12-02T03:31:22.946Z,84955.88
2023-12-02T03:33:50.470Z,84959.56
2023-12-02T03:36:17.850Z,84974.34
2023-12-02T03:38:45.520Z,84965.34
2023-12-02T03:41:12.894Z,84966.78
2023-12-02T03:43:51.952Z,84962.72
2023-12-02T03:46:28.648Z,84964.91
2023-12-02T03:48:56.987Z,84962.72
2023-12-02T03:51:31.705Z,84987.78
2023-12-02T03:53:59.039Z,84993.34
2023-12-02T03:56:26.474Z,84987.34
2023-12-02T03:58:54.039Z,84985.06
2023-12-02T04:01:21.730Z,84977.22
2023-12-02T04:03:49.513Z,84966.91
2023-12-02T04:06:17.116Z,84961.91
2023-12-02T04:08:44.450Z,84968.53
2023-12-02T04:11:11.940Z,84977.31
2023-12-02T04:13:39.262Z,84945.69
2023-12-02T04:16:07.183Z,84937.09
2023-12-02T04:18:34.802Z,84960.19
2023-12-02T04:21:02.463Z,84941.63
2023-12-02T04:23:29.847Z,84931.47
2023-12-02T04:25:57.494Z,84930.81
2023-12-02T04:28:24.987Z,84937.09
2023-12-02T04:30:52.290Z,84951.78
2023-12-02T04:33:19.795Z,84948.16
2023-12-02T04:35:47.493Z,84958.59
2023-12-02T04:38:14.893Z,84956.34
2023-12-02T04:40:42.301Z,84953.34
2023-12-02T04:43:09.893Z,84950.41
2023-12-02T04:45:37.229Z,84954.25
2023-12-02T04:48:04.758Z,84944.91
2023-12-02T04:50:32.170Z,84945.72
2023-12-02T04:52:59.523Z,84951.38
2023-12-02T04:55:27.120Z,84946.16
2023-12-02T04:57:54.618Z,84955.88
2023-12-02T05:00:22.345Z,84980.69
2023-12-02T05:02:49.839Z,84973.00
2023-12-02T05:05:17.348Z,84950.97
2023-12-02T05:07:45.512Z,84950.41
2023-12-02T05:10:13.113Z,84959.84
2023-12-02T05:12:40.632Z,84954.28
2023-12-02T05:15:08.726Z,84949.84
2023-12-02T05:17:36.610Z,84937.97
2023-12-02T05:20:05.029Z,84941.72
2023-12-02T05:22:32.602Z,84930.00
2023-12-02T05:25:00.158Z,84930.38
2023-12-02T05:27:27.581Z,84936.75
2023-12-02T05:29:55.017Z,84947.31
2023-12-02T05:32:22.554Z,84960.75
2023-12-02T05:34:49.995Z,84947.31
2023-12-02T05:37:17.519Z,84947.38
2023-12-02T05:39:45.158Z,84949.44
2023-12-02T05:42:12.572Z,84964.91
2023-12-02T05:44:42.652Z,84947.88
2023-12-02T05:47:10.288Z,84927.66
2023-12-02T05:49:37.689Z,84916.13
2023-12-02T05:52:05.516Z,84926.09
2023-12-02T05:54:33.297Z,84909.50
2023-12-02T05:57:00.969Z,84919.56
2023-12-02T05:59:28.485Z,84928.41
2023-12-02T06:01:56.089Z,84926.44
2023-12-02T06:04:23.614Z,84929.38
2023-12-02T06:06:51.049Z,84929.94
2023-12-02T06:09:18.774Z,84946.47
2023-12-02T06:11:46.245Z,84936.56
2023-12-02T06:14:13.604Z,84952.13
2023-12-02T06:16:41.045Z,84930.06
2023-12-02T06:19:09.252Z,84954.59
2023-12-02T06:21:36.790Z,84958.19
2023-12-02T06:24:04.861Z,84961.22
2023-12-02T06:26:32.365Z,84955.56
2023-12-02T06:28:59.724Z,84955.66
2023-12-02T06:31:27.068Z,84952.88
2023-12-02T06:33:54.646Z,84958.91
2023-12-02T06:36:22.058Z,84941.97
2023-12-02T06:38:49.446Z,84927.66
2023-12-02T06:41:16.944Z,84910.06
2023-12-02T06:43:44.327Z,84923.06
2023-12-02T06:46:21.913Z,84948.78
2023-12-02T06:48:52.830Z,84959.22
2023-12-02T06:51:20.487Z,84967.91
2023-12-02T06:53:47.890Z,84973.00
2023-12-02T06:56:21.002Z,84986.59
2023-12-02T06:58:49.505Z,84991.50
2023-12-02T07:01:28.212Z,85006.47
2023-12-02T07:03:59.730Z,85004.50
2023-12-02T07:06:28.792Z,85001.78
2023-12-02T07:08:56.691Z,84987.53
2023-12-02T07:11:24.228Z,84948.94
2023-12-02T07:13:52.069Z,84924.88
2023-12-02T07:16:19.532Z,84950.22
2023-12-02T07:18:48.639Z,84970.09
2023-12-02T07:21:16.282Z,84978.81
2023-12-02T07:23:43.683Z,84972.03
2023-12-02T07:26:11.863Z,84954.81
2023-12-02T07:28:39.366Z,84968.88
2023-12-02T07:31:07.560Z,84974.84
2023-12-02T07:33:35.178Z,84973.88
2023-12-02T07:36:02.768Z,84980.00
2023-12-02T07:38:30.207Z,84965.31
2023-12-02T07:40:57.649Z,84969.75
2023-12-02T07:43:25.369Z,84968.81
2023-12-02T07:45:52.810Z,84977.31
2023-12-02T07:48:22.730Z,84994.09
2023-12-02T07:50:51.193Z,85009.78
2023-12-02T07:53:18.772Z,85017.41
2023-12-02T07:55:47.278Z,85015.72
2023-12-02T07:58:14.809Z,84981.13
2023-12-02T08:00:42.221Z,84974.22
2023-12-02T08:03:09.784Z,84970.81
2023-12-02T08:08:30.543Z,84971.81
2023-12-02T08:10:58.141Z,84964.38
2023-12-02T08:13:25.572Z,84978.28
2023-12-02T08:15:53.022Z,84986.03
2023-12-02T08:18:20.520Z,84973.06
2023-12-02T08:20:48.290Z,84970.31
2023-12-02T08:23:21.838Z,84981.28
2023-12-02T08:25:49.307Z,84988.59
2023-12-02T08:28:16.678Z,84987.44
2023-12-02T08:30:46.798Z,84994.09
2023-12-02T08:33:14.891Z,85010.56
2023-12-02T08:35:42.784Z,85016.75
2023-12-02T08:38:10.324Z,85022.66
2023-12-02T08:40:37.823Z,85020.84
2023-12-02T08:43:05.905Z,85025.25
2023-12-02T08:45:36.039Z,85036.28
2023-12-02T08:48:03.726Z,85036.28
2023-12-02T08:50:36.128Z,85060.09
2023-12-02T08:53:04.915Z,85082.34
2023-12-02T08:55:33.021Z,85087.50
2023-12-02T08:58:00.531Z,85085.41
2023-12-02T09:00:27.972Z,85090.31
2023-12-02T09:02:55.425Z,85081.59
2023-12-02T09:05:22.904Z,85079.31
2023-12-02T09:07:50.336Z,85085.00
2023-12-02T09:10:17.998Z,85060.34
2023-12-02T09:12:45.708Z,85049.81
2023-12-02T09:15:19.058Z,85048.22
2023-12-02T09:18:09.463Z,85027.69
2023-12-02T09:20:41.916Z,85015.69
2023-12-02T09:23:11.522Z,85016.88
2023-12-02T09:25:41.145Z,85017.09
2023-12-02T09:28:08.539Z,85011.38
2023-12-02T09:30:38.847Z,85005.34
2023-12-02T09:33:07.218Z,85008.22
2023-12-02T09:35:36.285Z,85018.75
2023-12-02T09:38:05.853Z,85033.59
2023-12-02T09:41:02.115Z,85045.66
2023-12-02T09:43:57.987Z,85049.94
2023-12-02T09:46:52.632Z,85057.94
2023-12-02T09:49:53.956Z,85057.94
2023-12-02T09:53:04.943Z,85065.44
2023-12-02T09:56:00.047Z,85062.41
2023-12-02T09:58:46.917Z,85057.28
2023-12-02T10:01:50.032Z,85057.41
2023-12-02T10:04:37.664Z,85055.81
2023-12-02T10:08:03.507Z,85063.72
2023-12-02T10:10:59.484Z,85076.69
2023-12-02T10:14:10.001Z,85071.91
2023-12-02T10:16:42.658Z,85061.03
2023-12-02T10:19:39.105Z,85056.09
2023-12-02T10:22:11.761Z,85062.88
2023-12-02T10:25:34.517Z,85063.16
2023-12-02T10:29:03.019Z,85067.66
2023-12-02T10:31:35.773Z,85073.22
2023-12-02T10:34:38.157Z,85081.50
2023-12-02T10:37:15.283Z,85092.53
2023-12-02T10:39:54.022Z,85105.38
2023-12-02T10:42:27.201Z,85112.94
2023-12-02T10:45:05.550Z,85116.66
2023-12-02T10:47:33.965Z,85116.41
2023-12-02T10:50:03.162Z,85114.66
2023-12-02T10:55:04.897Z,85138.44
2023-12-02T10:57:35.125Z,85127.94
2023-12-02T11:00:08.898Z,85116.63
2023-12-02T11:02:52.388Z,85129.94
2023-12-02T11:05:31.166Z,85124.34
2023-12-02T11:08:14.044Z,85135.97
2023-12-02T11:10:52.762Z,85139.84
2023-12-02T11:13:24.691Z,85144.66
2023-12-02T11:16:23.412Z,85150.22
2023-12-02T11:19:12.841Z,85142.25
2023-12-02T11:21:55.221Z,85154.44
2023-12-02T11:25:07.662Z,85166.09
2023-12-02T11:27:53.272Z,85161.81
2023-12-02T11:31:13.765Z,85182.03
2023-12-02T11:34:13.413Z,85180.19
2023-12-02T11:37:17.615Z,85200.53
2023-12-02T11:40:14.300Z,85204.03
2023-12-02T11:42:57.378Z,85208.19
2023-12-02T11:45:36.773Z,85206.03
2023-12-02T11:48:18.295Z,85214.28
2023-12-02T11:51:04.545Z,85225.66
2023-12-02T11:54:07.673Z,85228.81
2023-12-02T11:56:36.006Z,85233.72
2023-12-02T11:59:16.466Z,85230.06
2023-12-02T12:02:18.842Z,85245.38
2023-12-02T12:05:28.675Z,85244.25
2023-12-02T12:08:20.692Z,85249.47
2023-12-02T12:10:59.820Z,85247.19
2023-12-02T12:13:30.475Z,85257.97
2023-12-02T12:15:59.621Z,85256.81
2023-12-02T12:18:27.174Z,85265.78
2023-12-02T12:20:55.630Z,85262.47
2023-12-02T12:23:26.496Z,85265.75
2023-12-02T12:25:53.922Z,85278.78
2023-12-02T12:28:21.640Z,85278.81
2023-12-02T12:30:50.395Z,85291.78
2023-12-02T12:33:21.606Z,85292.88
2023-12-02T12:35:49.561Z,85307.31
2023-12-02T12:38:17.425Z,85304.38
2023-12-02T12:40:46.530Z,85307.72
2023-12-02T12:43:15.316Z,85315.16
2023-12-02T12:45:43.428Z,85319.97
2023-12-02T12:48:12.953Z,85317.41
2023-12-02T12:50:44.380Z,85326.31
2023-12-02T12:53:13.932Z,85338.63
2023-12-02T12:55:48.488Z,85336.06
2023-12-02T12:58:18.748Z,85337.19
2023-12-02T13:00:49.207Z,85338.72
2023-12-02T13:03:37.958Z,85341.66
2023-12-02T13:06:15.106Z,85361.72
2023-12-02T13:09:06.461Z,85362.81
2023-12-02T13:11:56.808Z,85373.63
2023-12-02T13:14:41.419Z,85394.06
2023-12-02T13:17:12.597Z,85398.50
2023-12-02T13:19:45.145Z,85396.66
2023-12-02T13:22:15.503Z,85413.41
2023-12-02T13:25:12.814Z,85439.03
2023-12-02T13:27:59.292Z,85443.50
2023-12-02T13:30:27.800Z,85453.53
2023-12-02T13:33:05.079Z,85462.81
2023-12-02T13:35:41.172Z,85470.63
2023-12-02T13:38:33.912Z,85472.50
2023-12-02T13:41:52.494Z,85486.63
2023-12-02T13:44:24.039Z,85493.31
2023-12-02T13:47:05.072Z,85503.34
2023-12-02T13:49:44.044Z,85513.38
2023-12-02T13:52:43.920Z,85515.63
2023-12-02T13:55:48.709Z,85518.56
2023-12-02T13:58:23.172Z,85535.28
2023-12-02T14:01:25.663Z,85549.41
2023-12-02T14:04:35.943Z,85553.16
2023-12-02T14:07:24.004Z,85562.06
2023-12-02T14:09:59.502Z,85570.25
2023-12-02T14:12:39.186Z,85577.34
2023-12-02T14:15:20.207Z,85585.47
2023-12-02T14:18:11.220Z,85594.78
2023-12-02T14:21:03.360Z,85595.16
2023-12-02T14:24:05.401Z,85615.25
2023-12-02T14:26:40.385Z,85615.22
2023-12-02T14:29:29.887Z,85633.44
2023-12-02T14:33:01.727Z,85641.22
2023-12-02T14:36:11.421Z,85659.09
2023-12-02T14:39:01.159Z,85668.75
2023-12-02T14:41:49.089Z,85669.84
2023-12-02T14:44:29.715Z,85673.56
2023-12-02T14:47:04.905Z,85684.75
2023-12-02T14:49:39.572Z,85688.84
2023-12-02T14:52:07.960Z,85693.69
2023-12-02T14:54:39.428Z,85696.25
2023-12-02T14:57:17.919Z,85708.88
2023-12-02T15:00:07.027Z,85706.25
2023-12-02T15:02:50.319Z,85712.25
2023-12-02T15:05:20.319Z,85713.75
2023-12-02T15:07:56.984Z,85715.59
2023-12-02T15:10:33.927Z,85725.63
2023-12-02T15:13:08.343Z,85733.13
2023-12-02T15:15:36.410Z,85733.13
2023-12-02T15:18:07.547Z,85736.84
2023-12-02T15:20:36.085Z,85742.78
2023-12-02T15:23:18.796Z,85751.34
2023-12-02T15:25:52.941Z,85754.28
2023-12-02T15:28:23.674Z,85759.50
2023-12-02T15:30:54.633Z,85769.50
2023-12-02T15:33:40.889Z,85774.69
2023-12-02T15:36:10.612Z,85775.06
2023-12-02T15:38:38.320Z,85769.75
2023-12-02T15:41:06.980Z,85784.34
2023-12-02T15:43:34.986Z,85784.72
2023-12-02T15:46:02.709Z,85797.31
2023-12-02T15:48:30.636Z,85790.94
2023-12-02T15:50:59.196Z,85794.25
2023-12-02T15:53:28.098Z,85802.09
2023-12-02T15:55:58.444Z,85801.72
2023-12-02T15:58:28.445Z,85804.00
2023-12-02T16:01:03.415Z,85804.00
2023-12-02T16:03:32.810Z,85797.91
2023-12-02T16:06:02.283Z,85806.75
2023-12-02T16:08:30.136Z,85808.31
2023-12-02T16:11:07.045Z,85814.91
2023-12-02T16:13:42.915Z,85823.84
2023-12-02T16:16:15.301Z,85829.84
2023-12-02T16:18:45.277Z,85829.88
2023-12-02T16:21:19.129Z,85846.44
2023-12-02T16:23:49.128Z,85859.50
2023-12-02T16:26:18.713Z,85860.56
2023-12-02T16:28:47.596Z,85865.03
2023-12-02T16:31:24.108Z,85863.16
2023-12-02T16:33:53.410Z,85878.75
2023-12-02T16:36:21.225Z,85883.59
2023-12-02T16:38:52.169Z,85886.22
2023-12-02T16:41:19.681Z,85890.69
2023-12-02T16:43:47.243Z,85905.84
2023-12-02T16:46:14.718Z,85907.94
2023-12-02T16:48:49.397Z,85908.66
2023-12-02T16:51:17.228Z,85920.94
2023-12-02T16:53:44.780Z,85927.13
2023-12-02T16:56:20.914Z,85937.19
2023-12-02T16:58:49.865Z,85941.25
2023-12-02T17:01:35.489Z,85949.56
2023-12-02T17:04:03.668Z,85960.03
2023-12-02T17:06:31.077Z,85961.56
2023-12-02T17:08:58.630Z,85976.00
2023-12-02T17:11:26.177Z,85983.44
2023-12-02T17:13:59.065Z,85984.97
2023-12-02T17:16:57.210Z,85989.78
2023-12-02T17:19:26.223Z,85998.66
2023-12-02T17:21:59.943Z,85998.69
2023-12-02T17:24:34.507Z,85999.78
2023-12-02T17:27:03.244Z,86008.94
2023-12-02T17:29:34.085Z,86007.63
2023-12-02T17:32:02.406Z,86005.25
2023-12-02T17:34:31.975Z,86014.16
2023-12-02T17:37:00.257Z,86020.47
2023-12-02T17:39:27.902Z,86024.53
2023-12-02T17:41:55.580Z,86018.88
2023-12-02T17:44:22.991Z,86026.81
2023-12-02T17:46:51.433Z,86035.50
2023-12-02T17:49:19.034Z,86035.97
2023-12-02T17:51:46.577Z,86035.22
2023-12-02T17:54:14.381Z,86038.19
2023-12-02T17:56:41.700Z,86036.38
2023-12-02T17:59:09.251Z,86050.09
2023-12-02T18:01:36.814Z,86056.94
2023-12-02T18:04:04.603Z,86054.84
2023-12-02T18:06:32.231Z,86062.34
2023-12-02T18:08:59.733Z,86062.44
2023-12-02T18:11:27.679Z,86072.41
2023-12-02T18:13:55.212Z,86079.41
2023-12-02T18:16:22.653Z,86085.75
2023-12-02T18:18:50.101Z,86091.59
2023-12-02T18:21:17.589Z,86091.88
2023-12-02T18:23:44.967Z,86097.81
2023-12-02T18:26:12.394Z,86103.44
2023-12-02T18:28:39.777Z,86111.22
2023-12-02T18:31:07.606Z,86114.03
2023-12-02T18:33:35.042Z,86116.13
2023-12-02T18:36:02.459Z,86117.75
2023-12-02T18:38:30.038Z,86114.88
2023-12-02T18:40:57.396Z,86116.31
2023-12-02T18:43:24.772Z,86120.66
2023-12-02T18:45:52.493Z,86122.56
2023-12-02T18:48:19.953Z,86118.06
2023-12-02T18:50:47.430Z,86126.84
2023-12-02T18:53:14.809Z,86128.84
2023-12-02T18:55:42.217Z,86137.16
2023-12-02T18:58:09.642Z,86143.22
2023-12-02T19:00:37.381Z,86149.59
2023-12-02T19:03:05.035Z,86149.69
2023-12-02T19:05:32.557Z,86150.88
2023-12-02T19:08:00.969Z,86153.88
2023-12-02T19:10:28.586Z,86157.97
2023-12-02T19:12:55.989Z,86159.66
2023-12-02T19:15:23.389Z,86153.44
2023-12-02T19:17:50.830Z,86172.84
2023-12-02T19:20:18.296Z,86176.38
2023-12-02T19:22:45.743Z,86183.47
2023-12-02T19:25:13.164Z,86189.06
2023-12-02T19:27:40.549Z,86188.59
2023-12-02T19:30:08.982Z,86198.50
2023-12-02T19:32:36.856Z,86187.81
2023-12-02T19:35:04.524Z,86203.53
2023-12-02T19:37:32.304Z,86216.44
2023-12-02T19:40:01.250Z,86217.88
2023-12-02T19:42:28.922Z,86218.00
2023-12-02T19:44:56.233Z,86223.25
2023-12-02T19:47:23.597Z,86233.63
2023-12-02T19:49:51.151Z,86227.41
2023-12-02T19:52:18.789Z,86230.09
2023-12-02T19:54:46.253Z,86233.31
2023-12-02T19:57:13.854Z,86240.47
2023-12-02T19:59:41.350Z,86239.28
2023-12-02T20:02:08.921Z,86245.38
2023-12-02T20:04:36.687Z,86257.59
2023-12-02T20:07:04.400Z,86249.41
2023-12-02T20:09:32.245Z,86265.31
2023-12-02T20:11:59.904Z,86258.88
2023-12-02T20:14:27.267Z,86266.41
2023-12-02T20:16:54.847Z,86269.25
2023-12-02T20:19:22.796Z,86284.41
2023-12-02T20:21:50.348Z,86277.91
2023-12-02T20:24:17.929Z,86288.47
2023-12-02T20:26:45.399Z,86289.63
2023-12-02T20:29:13.033Z,86287.00
2023-12-02T20:31:40.436Z,86302.03
2023-12-02T20:34:08.441Z,86294.47
2023-12-02T20:36:36.165Z,86303.91
2023-12-02T20:39:06.046Z,86299.59
2023-12-02T20:41:35.981Z,86305.13
2023-12-02T20:44:03.341Z,86301.84
2023-12-02T20:46:30.825Z,86317.25
2023-12-02T20:48:58.383Z,86320.78
2023-12-02T20:51:26.197Z,86323.13
2023-12-02T20:53:53.521Z,86335.38
2023-12-02T20:56:20.865Z,86342.75
2023-12-02T20:58:48.236Z,86342.59
2023-12-02T21:01:15.694Z,86344.53
2023-12-02T21:03:43.617Z,86348.34
2023-12-02T21:06:11.371Z,86360.91
2023-12-02T21:08:38.945Z,86360.50
2023-12-02T21:11:06.514Z,86360.22
2023-12-02T21:13:33.930Z,86361.66
2023-12-02T21:16:01.372Z,86374.13
2023-12-02T21:18:29.131Z,86377.56
2023-12-02T21:20:56.634Z,86388.16
2023-12-02T21:23:24.277Z,86378.78
2023-12-02T21:25:51.840Z,86386.41
2023-12-02T21:28:19.188Z,86389.78
2023-12-02T21:30:47.189Z,86391.94
2023-12-02T21:33:19.079Z,86390.94
2023-12-02T21:35:55.447Z,86402.81
2023-12-02T21:38:45.150Z,86401.91
2023-12-02T21:41:17.726Z,86412.91
2023-12-02T21:43:48.031Z,86414.09
2023-12-02T21:46:26.828Z,86423.81
2023-12-02T21:49:15.970Z,86431.31
2023-12-02T21:51:45.908Z,86433.25
2023-12-02T21:54:20.124Z,86443.06
2023-12-02T21:56:51.477Z,86450.03
2023-12-02T21:59:21.104Z,86450.97
2023-12-02T22:01:53.514Z,86458.81
2023-12-02T22:04:23.936Z,86461.09
2023-12-02T22:07:02.611Z,86463.91
2023-12-02T22:09:39.087Z,86474.00
2023-12-02T22:12:36.114Z,86465.47
2023-12-02T22:15:15.769Z,86476.84
2023-12-02T22:17:44.314Z,86485.22
2023-12-02T22:20:20.624Z,86481.44
2023-12-02T22:23:15.437Z,86490.53
2023-12-02T22:25:45.516Z,86507.41
2023-12-02T22:28:16.818Z,86505.00
2023-12-02T22:30:50.236Z,86508.84
2023-12-02T22:33:21.342Z,86517.47
2023-12-02T22:36:04.024Z,86512.19
2023-12-02T22:38:37.114Z,86523.81
2023-12-02T22:41:09.347Z,86536.22
2023-12-02T22:43:45.154Z,86535.78
2023-12-02T22:46:13.895Z,86544.13
2023-12-02T22:48:45.351Z,86557.41
2023-12-02T22:51:25.941Z,86564.19
2023-12-02T22:53:55.275Z,86562.75
2023-12-02T22:56:31.076Z,86580.53
2023-12-02T22:58:58.539Z,86580.13
2023-12-02T23:01:34.689Z,86584.88
2023-12-02T23:04:31.966Z,86586.19
2023-12-02T23:06:59.411Z,86591.19
2023-12-02T23:09:29.698Z,86592.66
2023-12-02T23:12:05.044Z,86603.38
2023-12-02T23:14:47.498Z,86597.19
2023-12-02T23:17:26.179Z,86599.69
2023-12-02T23:19:54.683Z,86607.91
2023-12-02T23:22:22.649Z,86609.41
2023-12-02T23:24:50.825Z,86612.25
2023-12-02T23:27:48.230Z,86615.81
2023-12-02T23:30:18.931Z,86611.50
2023-12-02T23:32:47.598Z,86624.66
2023-12-02T23:35:38.374Z,86622.41
2023-12-02T23:38:06.030Z,86627.03
2023-12-02T23:40:44.509Z,86636.63
2023-12-02T23:43:34.040Z,86628.66
2023-12-02T23:46:01.506Z,86629.75
2023-12-02T23:48:29.149Z,86635.00
2023-12-02T23:50:56.718Z,86640.63
2023-12-02T23:53:24.299Z,86635.56
2023-12-02T23:55:53.281Z,86638.47
2023-12-02T23:58:20.786Z,86642.91
